Check out our new PWSWeather beta!
PWSweather.com
Personal Weather Stations
Station Observations
VPOKROGLO
Kal Nad Kanalom, PrimorskaSI

Kal Nad KanalomPrimorskaSI

Lat: 46.072, Lon: 13.734

Elevation: 2526

Station Type: WS-2355

https://okroglovreme.com

High Low Average
Temperature 39.6°F4.2°C 34.3°F1.3°C 37.5°F3.1°C
Dew Point 33.8°F1.0°C 28.2°F-2.1°C 31.3°F-0.4°C
Winds 5.5 mph 8.9 kmh Calm Calm 2.0 mph SE3.2 kmh SE
Wind Gusts 16.8 mph27.0 kmh -- 6.0 mph9.7 kmh
Humidity 84% 70% 78%
Pressure 30.20 in1022.7 mb 30.15 in1021.0 mb -
Precipitation 0.06 in1.5 mm - -
Hour Temp Dew Point Humidity Winds Wind Gusts Pressure Precip Precip Rate Daily Precip Total
12:00 AM 39.4°F4.1°C 30.4°F-0.9°C 70% 0.1 mph SE0.2 kmh SE 1.8 mph2.9 kmh 30.20 in1022.7 mb 0.00 in0.0 mm 0.00 in0.0 mm 0.00 in0.0 mm
12:15 AM 39.4°F4.1°C 30.4°F-0.9°C 70% 0.2 mph SE0.3 kmh SE 1.8 mph2.9 kmh 30.20 in1022.7 mb 0.00 in0.0 mm 0.00 in0.0 mm 0.00 in0.0 mm
12:30 AM 39.6°F4.2°C 30.6°F-0.8°C 70% 0.1 mph SE0.2 kmh SE 1.1 mph1.8 kmh 30.19 in1022.4 mb 0.00 in0.0 mm 0.00 in0.0 mm 0.00 in0.0 mm
12:45 AM 39.0°F3.9°C 30.4°F-0.9°C 71% 0.8 mph SE1.3 kmh SE 2.2 mph3.5 kmh 30.19 in1022.4 mb 0.00 in0.0 mm 0.00 in0.0 mm 0.00 in0.0 mm
01:00 AM 38.5°F3.6°C 29.9°F-1.2°C 71% Calm Calm -- 30.19 in1022.4 mb 0.00 in0.0 mm 0.00 in0.0 mm 0.00 in0.0 mm
01:15 AM 38.1°F3.4°C 29.9°F-1.2°C 72% Calm Calm -- 30.19 in1022.4 mb 0.00 in0.0 mm 0.00 in0.0 mm 0.00 in0.0 mm
01:30 AM 38.1°F3.4°C 29.9°F-1.2°C 72% Calm Calm -- 30.19 in1022.4 mb 0.00 in0.0 mm 0.00 in0.0 mm 0.00 in0.0 mm
01:45 AM 38.3°F3.5°C 30.4°F-0.9°C 73% 0.3 mph SE0.5 kmh SE 2.0 mph3.2 kmh 30.19 in1022.4 mb 0.00 in0.0 mm 0.00 in0.0 mm 0.00 in0.0 mm
02:00 AM 37.9°F3.3°C 30.1°F-1.1°C 73% Calm Calm -- 30.19 in1022.4 mb 0.00 in0.0 mm 0.00 in0.0 mm 0.00 in0.0 mm
02:15 AM 37.9°F3.3°C 30.1°F-1.1°C 73% 0.6 mph SE1.0 kmh SE 2.2 mph3.5 kmh 30.20 in1022.7 mb 0.00 in0.0 mm 0.00 in0.0 mm 0.00 in0.0 mm
02:30 AM 37.6°F3.1°C 30.0°F-1.1°C 74% 0.4 mph ESE0.6 kmh ESE 2.0 mph3.2 kmh 30.20 in1022.7 mb 0.00 in0.0 mm 0.00 in0.0 mm 0.00 in0.0 mm
02:45 AM 37.6°F3.1°C 30.0°F-1.1°C 74% 0.7 mph ESE1.1 kmh ESE 2.5 mph4.0 kmh 30.20 in1022.7 mb 0.00 in0.0 mm 0.00 in0.0 mm 0.00 in0.0 mm
03:00 AM 37.4°F3.0°C 30.2°F-1.0°C 75% Calm Calm 1.1 mph1.8 kmh 30.20 in1022.7 mb 0.00 in0.0 mm 0.00 in0.0 mm 0.00 in0.0 mm
03:15 AM 37.4°F3.0°C 30.2°F-1.0°C 75% Calm Calm -- 30.19 in1022.4 mb 0.00 in0.0 mm 0.00 in0.0 mm 0.00 in0.0 mm
03:30 AM 37.6°F3.1°C 30.7°F-0.7°C 76% Calm Calm -- 30.19 in1022.4 mb 0.00 in0.0 mm 0.00 in0.0 mm 0.00 in0.0 mm
03:45 AM 37.2°F2.9°C 30.7°F-0.7°C 77% 0.1 mph ESE0.2 kmh ESE 0.9 mph1.4 kmh 30.19 in1022.4 mb 0.00 in0.0 mm 0.00 in0.0 mm 0.00 in0.0 mm
04:00 AM 37.2°F2.9°C 30.7°F-0.7°C 77% 0.8 mph E1.3 kmh E 2.7 mph4.3 kmh 30.19 in1022.4 mb 0.00 in0.0 mm 0.00 in0.0 mm 0.00 in0.0 mm
04:15 AM 37.6°F3.1°C 31.3°F-0.4°C 78% 0.8 mph E1.3 kmh E 3.4 mph5.5 kmh 30.19 in1022.4 mb 0.00 in0.0 mm 0.00 in0.0 mm 0.00 in0.0 mm
04:30 AM 37.9°F3.3°C 31.7°F-0.2°C 78% 0.7 mph E1.1 kmh E 2.2 mph3.5 kmh 30.18 in1022.0 mb 0.00 in0.0 mm 0.00 in0.0 mm 0.00 in0.0 mm
04:45 AM 37.9°F3.3°C 31.7°F-0.2°C 78% Calm Calm -- 30.17 in1021.7 mb 0.00 in0.0 mm 0.00 in0.0 mm 0.00 in0.0 mm
05:00 AM 37.9°F3.3°C 32.0°F0.0°C 79% Calm Calm -- 30.17 in1021.7 mb 0.00 in0.0 mm 0.00 in0.0 mm 0.00 in0.0 mm
05:15 AM 37.9°F3.3°C 32.0°F0.0°C 79% 0.3 mph E0.5 kmh E 1.8 mph2.9 kmh 30.18 in1022.0 mb 0.00 in0.0 mm 0.00 in0.0 mm 0.00 in0.0 mm
05:30 AM 37.6°F3.1°C 32.0°F0.0°C 80% Calm Calm -- 30.17 in1021.7 mb 0.00 in0.0 mm 0.00 in0.0 mm 0.00 in0.0 mm
05:45 AM 37.6°F3.1°C 32.3°F0.2°C 81% Calm Calm 0.9 mph1.4 kmh 30.17 in1021.7 mb 0.00 in0.0 mm 0.00 in0.0 mm 0.00 in0.0 mm
06:00 AM 37.2°F2.9°C 31.9°F-0.1°C 81% Calm Calm -- 30.18 in1022.0 mb 0.00 in0.0 mm 0.00 in0.0 mm 0.00 in0.0 mm
06:15 AM 37.2°F2.9°C 31.9°F-0.1°C 81% 0.1 mph E0.2 kmh E 1.3 mph2.1 kmh 30.18 in1022.0 mb 0.00 in0.0 mm 0.00 in0.0 mm 0.00 in0.0 mm
06:30 AM 37.2°F2.9°C 32.2°F0.1°C 82% 1.5 mph E2.4 kmh E 2.7 mph4.3 kmh 30.18 in1022.0 mb 0.00 in0.0 mm 0.00 in0.0 mm 0.00 in0.0 mm
06:45 AM 37.2°F2.9°C 32.5°F0.3°C 83% 0.3 mph E0.5 kmh E 2.5 mph4.0 kmh 30.18 in1022.0 mb 0.00 in0.0 mm 0.00 in0.0 mm 0.00 in0.0 mm
07:00 AM 37.2°F2.9°C 32.5°F0.3°C 83% 0.1 mph E0.2 kmh E 1.6 mph2.6 kmh 30.17 in1021.7 mb 0.00 in0.0 mm 0.00 in0.0 mm 0.00 in0.0 mm
07:15 AM 37.4°F3.0°C 32.7°F0.4°C 83% Calm Calm -- 30.18 in1022.0 mb 0.00 in0.0 mm 0.00 in0.0 mm 0.00 in0.0 mm
07:30 AM 37.8°F3.2°C 33.4°F0.8°C 84% 0.4 mph E0.6 kmh E 2.5 mph4.0 kmh 30.18 in1022.0 mb 0.00 in0.0 mm 0.00 in0.0 mm 0.00 in0.0 mm
07:45 AM 37.8°F3.2°C 33.4°F0.8°C 84% 0.1 mph E0.2 kmh E 1.6 mph2.6 kmh 30.18 in1022.0 mb 0.00 in0.0 mm 0.00 in0.0 mm 0.00 in0.0 mm
08:00 AM 37.8°F3.2°C 33.4°F0.8°C 84% 0.5 mph NE0.8 kmh NE 3.4 mph5.5 kmh 30.18 in1022.0 mb 0.00 in0.0 mm 0.00 in0.0 mm 0.00 in0.0 mm
08:15 AM 38.5°F3.6°C 33.8°F1.0°C 83% 3.1 mph N5.0 kmh N 5.8 mph9.3 kmh 30.18 in1022.0 mb 0.00 in0.0 mm 0.00 in0.0 mm 0.00 in0.0 mm
08:30 AM 38.7°F3.7°C 33.6°F0.9°C 82% 1.1 mph N1.8 kmh N 3.6 mph5.8 kmh 30.18 in1022.0 mb 0.00 in0.0 mm 0.00 in0.0 mm 0.00 in0.0 mm
08:45 AM 38.5°F3.6°C 33.5°F0.8°C 82% 0.1 mph N0.2 kmh N 1.8 mph2.9 kmh 30.18 in1022.0 mb 0.00 in0.0 mm 0.00 in0.0 mm 0.00 in0.0 mm
09:00 AM 38.5°F3.6°C 33.5°F0.8°C 82% 0.3 mph WNW0.5 kmh WNW 2.2 mph3.5 kmh 30.18 in1022.0 mb 0.00 in0.0 mm 0.00 in0.0 mm 0.00 in0.0 mm
09:15 AM 38.5°F3.6°C 33.2°F0.7°C 81% 1.4 mph NW2.3 kmh NW 4.0 mph6.4 kmh 30.18 in1022.0 mb 0.00 in0.0 mm 0.00 in0.0 mm 0.00 in0.0 mm
09:30 AM 37.9°F3.3°C 32.9°F0.5°C 82% 0.4 mph NNW0.6 kmh NNW 2.5 mph4.0 kmh 30.18 in1022.0 mb 0.00 in0.0 mm 0.00 in0.0 mm 0.00 in0.0 mm
09:45 AM 38.1°F3.4°C 33.1°F0.6°C 82% 0.6 mph NNW1.0 kmh NNW 3.6 mph5.8 kmh 30.19 in1022.4 mb 0.00 in0.0 mm 0.00 in0.0 mm 0.00 in0.0 mm
10:00 AM 38.5°F3.6°C 33.5°F0.8°C 82% 1.0 mph WSW1.6 kmh WSW 4.0 mph6.4 kmh 30.19 in1022.4 mb 0.00 in0.0 mm 0.00 in0.0 mm 0.00 in0.0 mm
10:15 AM 38.1°F3.4°C 32.8°F0.4°C 81% 1.0 mph WSW1.6 kmh WSW 3.1 mph5.0 kmh 30.19 in1022.4 mb 0.00 in0.0 mm 0.00 in0.0 mm 0.00 in0.0 mm
10:30 AM 38.5°F3.6°C 33.2°F0.7°C 81% 0.4 mph NW0.6 kmh NW 2.0 mph3.2 kmh 30.20 in1022.7 mb 0.00 in0.0 mm 0.00 in0.0 mm 0.00 in0.0 mm
10:45 AM 38.3°F3.5°C 33.0°F0.6°C 81% 0.1 mph NW0.2 kmh NW 1.6 mph2.6 kmh 30.20 in1022.7 mb 0.00 in0.0 mm 0.00 in0.0 mm 0.00 in0.0 mm
11:00 AM 38.5°F3.6°C 33.2°F0.7°C 81% 0.4 mph NW0.6 kmh NW 2.2 mph3.5 kmh 30.19 in1022.4 mb 0.00 in0.0 mm 0.00 in0.0 mm 0.00 in0.0 mm
11:15 AM 39.0°F3.9°C 33.4°F0.8°C 80% 0.6 mph W1.0 kmh W 2.5 mph4.0 kmh 30.19 in1022.4 mb 0.00 in0.0 mm 0.00 in0.0 mm 0.00 in0.0 mm
11:30 AM 39.4°F4.1°C 33.4°F0.8°C 79% 0.6 mph W1.0 kmh W 4.0 mph6.4 kmh 30.19 in1022.4 mb 0.00 in0.0 mm 0.00 in0.0 mm 0.00 in0.0 mm
11:45 AM 39.4°F4.1°C 33.1°F0.6°C 78% 1.6 mph NNW2.6 kmh NNW 5.6 mph9.0 kmh 30.19 in1022.4 mb 0.00 in0.0 mm 0.00 in0.0 mm 0.00 in0.0 mm
12:00 PM 39.4°F4.1°C 32.8°F0.4°C 77% 1.9 mph NNE3.1 kmh NNE 4.5 mph7.2 kmh 30.19 in1022.4 mb 0.00 in0.0 mm 0.00 in0.0 mm 0.00 in0.0 mm
12:15 PM 39.0°F3.9°C 32.4°F0.2°C 77% 2.3 mph ENE3.7 kmh ENE 7.8 mph12.6 kmh 30.18 in1022.0 mb 0.00 in0.0 mm 0.00 in0.0 mm 0.00 in0.0 mm
12:30 PM 38.3°F3.5°C 32.0°F0.0°C 78% 3.1 mph SE5.0 kmh SE 7.4 mph11.9 kmh 30.17 in1021.7 mb 0.00 in0.0 mm 0.00 in0.0 mm 0.00 in0.0 mm
12:45 PM 38.1°F3.4°C 32.2°F0.1°C 79% 2.9 mph SW4.7 kmh SW 8.1 mph13.0 kmh 30.18 in1022.0 mb 0.00 in0.0 mm 0.00 in0.0 mm 0.00 in0.0 mm
01:00 PM 38.1°F3.4°C 32.5°F0.3°C 80% 2.0 mph E3.2 kmh E 6.7 mph10.8 kmh 30.17 in1021.7 mb 0.00 in0.0 mm 0.00 in0.0 mm 0.00 in0.0 mm
01:15 PM 37.9°F3.3°C 32.3°F0.2°C 80% 3.7 mph ENE6.0 kmh ENE 10.5 mph16.9 kmh 30.17 in1021.7 mb 0.02 in0.5 mm 0.08 in2.0 mm 0.02 in0.5 mm
01:30 PM 37.8°F3.2°C 32.1°F0.1°C 80% 3.7 mph ENE6.0 kmh ENE 12.1 mph19.5 kmh 30.16 in1021.3 mb 0.02 in0.5 mm 0.00 in0.0 mm 0.02 in0.5 mm
01:45 PM 37.4°F3.0°C 32.1°F0.1°C 81% 3.0 mph ENE4.8 kmh ENE 8.3 mph13.4 kmh 30.17 in1021.7 mb 0.04 in1.0 mm 0.08 in2.0 mm 0.04 in1.0 mm
02:00 PM 37.2°F2.9°C 32.2°F0.1°C 82% 3.7 mph NE6.0 kmh NE 14.5 mph23.3 kmh 30.16 in1021.3 mb 0.04 in1.0 mm 0.00 in0.0 mm 0.04 in1.0 mm
02:15 PM 37.2°F2.9°C 32.2°F0.1°C 82% 2.6 mph NE4.2 kmh NE 9.6 mph15.4 kmh 30.16 in1021.3 mb 0.02 in0.5 mm 0.00 in0.0 mm 0.04 in1.0 mm
02:30 PM 37.6°F3.1°C 32.6°F0.3°C 82% 5.5 mph NE8.9 kmh NE 16.8 mph27.0 kmh 30.16 in1021.3 mb 0.04 in1.0 mm 0.08 in2.0 mm 0.06 in1.5 mm
02:45 PM 37.9°F3.3°C 32.9°F0.5°C 82% 3.4 mph NE5.5 kmh NE 11.9 mph19.2 kmh 30.15 in1021.0 mb 0.02 in0.5 mm 0.00 in0.0 mm 0.06 in1.5 mm
03:00 PM 38.1°F3.4°C 32.8°F0.4°C 81% 4.6 mph ESE7.4 kmh ESE 13.4 mph21.6 kmh 30.15 in1021.0 mb 0.02 in0.5 mm 0.00 in0.0 mm 0.06 in1.5 mm
03:15 PM 38.5°F3.6°C 32.8°F0.4°C 80% 4.5 mph ESE7.2 kmh ESE 13.2 mph21.2 kmh 30.15 in1021.0 mb 0.02 in0.5 mm 0.00 in0.0 mm 0.06 in1.5 mm
03:30 PM 38.7°F3.7°C 33.0°F0.6°C 80% 3.3 mph ENE5.3 kmh ENE 9.8 mph15.8 kmh 30.16 in1021.3 mb 0.00 in0.0 mm 0.00 in0.0 mm 0.06 in1.5 mm
03:45 PM 38.8°F3.8°C 32.9°F0.5°C 79% 3.5 mph NE5.6 kmh NE 14.1 mph22.7 kmh 30.15 in1021.0 mb 0.00 in0.0 mm 0.00 in0.0 mm 0.06 in1.5 mm
04:00 PM 38.8°F3.8°C 32.9°F0.5°C 79% 2.7 mph ENE4.3 kmh ENE 10.7 mph17.2 kmh 30.16 in1021.3 mb 0.00 in0.0 mm 0.00 in0.0 mm 0.06 in1.5 mm
04:15 PM 38.8°F3.8°C 32.6°F0.3°C 78% 3.7 mph E6.0 kmh E 8.3 mph13.4 kmh 30.15 in1021.0 mb 0.00 in0.0 mm 0.00 in0.0 mm 0.06 in1.5 mm
04:30 PM 38.8°F3.8°C 32.6°F0.3°C 78% 3.0 mph NE4.8 kmh NE 10.7 mph17.2 kmh 30.15 in1021.0 mb 0.00 in0.0 mm 0.00 in0.0 mm 0.06 in1.5 mm
04:45 PM 38.5°F3.6°C 31.9°F-0.1°C 77% 4.7 mph E7.6 kmh E 14.1 mph22.7 kmh 30.15 in1021.0 mb 0.00 in0.0 mm 0.00 in0.0 mm 0.06 in1.5 mm
05:00 PM 38.5°F3.6°C 31.9°F-0.1°C 77% 3.3 mph NE5.3 kmh NE 9.2 mph14.8 kmh 30.15 in1021.0 mb 0.00 in0.0 mm 0.00 in0.0 mm 0.06 in1.5 mm
05:15 PM 38.3°F3.5°C 31.4°F-0.3°C 76% 5.2 mph E8.4 kmh E 13.0 mph20.9 kmh 30.15 in1021.0 mb 0.00 in0.0 mm 0.00 in0.0 mm 0.06 in1.5 mm
05:30 PM 38.3°F3.5°C 31.1°F-0.5°C 75% 5.1 mph NE8.2 kmh NE 16.6 mph26.7 kmh 30.16 in1021.3 mb 0.00 in0.0 mm 0.00 in0.0 mm 0.06 in1.5 mm
05:45 PM 38.1°F3.4°C 30.9°F-0.6°C 75% 4.3 mph ENE6.9 kmh ENE 13.0 mph20.9 kmh 30.16 in1021.3 mb 0.00 in0.0 mm 0.00 in0.0 mm 0.06 in1.5 mm
06:00 PM 37.9°F3.3°C 30.7°F-0.7°C 75% 3.3 mph E5.3 kmh E 10.5 mph16.9 kmh 30.16 in1021.3 mb 0.00 in0.0 mm 0.00 in0.0 mm 0.06 in1.5 mm
06:15 PM 37.8°F3.2°C 30.5°F-0.8°C 75% 3.4 mph SE5.5 kmh SE 8.9 mph14.3 kmh 30.17 in1021.7 mb 0.00 in0.0 mm 0.00 in0.0 mm 0.06 in1.5 mm
06:30 PM 37.6°F3.1°C 30.4°F-0.9°C 75% 3.5 mph ESE5.6 kmh ESE 9.8 mph15.8 kmh 30.17 in1021.7 mb 0.00 in0.0 mm 0.00 in0.0 mm 0.06 in1.5 mm
06:45 PM 37.4°F3.0°C 30.2°F-1.0°C 75% 3.5 mph E5.6 kmh E 10.7 mph17.2 kmh 30.18 in1022.0 mb 0.00 in0.0 mm 0.00 in0.0 mm 0.06 in1.5 mm
07:00 PM 37.0°F2.8°C 29.8°F-1.2°C 75% 3.9 mph SSE6.3 kmh SSE 10.3 mph16.6 kmh 30.19 in1022.4 mb 0.00 in0.0 mm 0.00 in0.0 mm 0.06 in1.5 mm
07:15 PM 36.7°F2.6°C 29.5°F-1.4°C 75% 4.0 mph SE6.4 kmh SE 11.9 mph19.2 kmh 30.18 in1022.0 mb 0.00 in0.0 mm 0.00 in0.0 mm 0.06 in1.5 mm
07:30 PM 36.5°F2.5°C 29.7°F-1.3°C 76% 4.2 mph S6.8 kmh S 10.5 mph16.9 kmh 30.18 in1022.0 mb 0.00 in0.0 mm 0.00 in0.0 mm 0.06 in1.5 mm
07:45 PM 36.3°F2.4°C 29.5°F-1.4°C 76% 4.5 mph S7.2 kmh S 14.1 mph22.7 kmh 30.18 in1022.0 mb 0.00 in0.0 mm 0.00 in0.0 mm 0.06 in1.5 mm
08:00 PM 36.1°F2.3°C 29.3°F-1.5°C 76% 4.2 mph SSE6.8 kmh SSE 15.2 mph24.5 kmh 30.19 in1022.4 mb 0.00 in0.0 mm 0.00 in0.0 mm 0.06 in1.5 mm
08:15 PM 35.8°F2.1°C 29.3°F-1.5°C 77% 4.6 mph SSE7.4 kmh SSE 12.5 mph20.1 kmh 30.19 in1022.4 mb 0.00 in0.0 mm 0.00 in0.0 mm 0.06 in1.5 mm
08:30 PM 35.8°F2.1°C 29.3°F-1.5°C 77% 4.3 mph S6.9 kmh S 9.8 mph15.8 kmh 30.19 in1022.4 mb 0.00 in0.0 mm 0.00 in0.0 mm 0.06 in1.5 mm
08:45 PM 35.8°F2.1°C 29.0°F-1.7°C 76% 4.6 mph S7.4 kmh S 12.1 mph19.5 kmh 30.19 in1022.4 mb 0.00 in0.0 mm 0.00 in0.0 mm 0.06 in1.5 mm
09:00 PM 35.4°F1.9°C 28.9°F-1.7°C 77% 4.0 mph S6.4 kmh S 13.4 mph21.6 kmh 30.20 in1022.7 mb 0.00 in0.0 mm 0.00 in0.0 mm 0.06 in1.5 mm
09:15 PM 34.9°F1.6°C 28.4°F-2.0°C 77% 4.3 mph SSE6.9 kmh SSE 11.0 mph17.7 kmh 30.20 in1022.7 mb 0.00 in0.0 mm 0.00 in0.0 mm 0.06 in1.5 mm
09:30 PM 34.9°F1.6°C 28.7°F-1.8°C 78% 3.8 mph S6.1 kmh S 10.5 mph16.9 kmh 30.20 in1022.7 mb 0.00 in0.0 mm 0.00 in0.0 mm 0.06 in1.5 mm
09:45 PM 34.7°F1.5°C 28.5°F-1.9°C 78% 3.9 mph S6.3 kmh S 10.5 mph16.9 kmh 30.20 in1022.7 mb 0.00 in0.0 mm 0.00 in0.0 mm 0.06 in1.5 mm
10:00 PM 34.7°F1.5°C 28.5°F-1.9°C 78% 3.6 mph SSW5.8 kmh SSW 8.9 mph14.3 kmh 30.20 in1022.7 mb 0.00 in0.0 mm 0.00 in0.0 mm 0.06 in1.5 mm
10:15 PM 34.5°F1.4°C 28.4°F-2.0°C 78% 2.7 mph SW4.3 kmh SW 9.2 mph14.8 kmh 30.20 in1022.7 mb 0.00 in0.0 mm 0.00 in0.0 mm 0.06 in1.5 mm
10:30 PM 34.5°F1.4°C 28.4°F-2.0°C 78% 2.7 mph W4.3 kmh W 7.2 mph11.6 kmh 30.20 in1022.7 mb 0.00 in0.0 mm 0.00 in0.0 mm 0.06 in1.5 mm
10:45 PM 34.3°F1.3°C 28.5°F-1.9°C 79% 2.3 mph WNW3.7 kmh WNW 5.6 mph9.0 kmh 30.20 in1022.7 mb 0.00 in0.0 mm 0.00 in0.0 mm 0.06 in1.5 mm
11:00 PM 34.3°F1.3°C 28.2°F-2.1°C 78% 3.2 mph SW5.1 kmh SW 9.8 mph15.8 kmh 30.20 in1022.7 mb 0.00 in0.0 mm 0.00 in0.0 mm 0.06 in1.5 mm
11:15 PM 34.3°F1.3°C 28.2°F-2.1°C 78% 3.1 mph W5.0 kmh W 9.6 mph15.4 kmh 30.20 in1022.7 mb 0.00 in0.0 mm 0.00 in0.0 mm 0.06 in1.5 mm
11:30 PM 34.3°F1.3°C 28.2°F-2.1°C 78% 4.1 mph NW6.6 kmh NW 11.4 mph18.3 kmh 30.20 in1022.7 mb 0.00 in0.0 mm 0.00 in0.0 mm 0.06 in1.5 mm
11:45 PM 34.3°F1.3°C 28.2°F-2.1°C 78% 3.2 mph SW5.1 kmh SW 8.9 mph14.3 kmh 30.20 in1022.7 mb 0.00 in0.0 mm 0.00 in0.0 mm 0.06 in1.5 mm